• Join FlightAware (Why Join?)
  • Login
  • US Flag 
Rudolph Flight #1: Arrived! 
04:56PM EST


 

Airport Tracker/Info


-or-


 

Live Flight TrackerFlight Track Log ✈ N604MC ✈ 2013年 05月 12日 ✈ KBLM - KBCT

Flight Track Log - Related Links

Times and Time Zones

All times are in EDT time to prevent confusion due to time zone crossing. See the N604MC flight status page for this flight to view local times or setup timezone preferences in your user account.

Time Position Orientation Groundspeed Altitude Reporting Facility
EDT Latitude Longitude Course Direction KTS MPH feet Rate Location/Type
05:32PM 39.9119 -74.2283 237° Southwest 264 304 6,000  Level Washington Center
05:33PM 39.5752 -74.5667 180° South  Level FlightAware Approximate
05:33PM 39.8753 -74.3047 238° Southwest 269 310 6,000  Level Washington Center
05:34PM 39.4704 -74.5667 180° South  Level FlightAware Approximate
05:34PM 39.8408 -74.3836 240° Southwest 264 304 6,000  Level Washington Center
05:35PM 39.3985 -74.6530 237° Southwest  Level FlightAware Approximate
05:35PM 39.7914 -74.4600 230° Southwest 264 304 6,100  Level Washington Center
05:36PM 39.3433 -74.7634 237° Southwest  Level FlightAware Approximate
05:36PM 39.7317 -74.5150 215° Southwest 257 296 7,700  Level Washington Center
05:37PM 39.2864 -74.8772 237° Southwest  Level FlightAware Approximate
05:37PM 39.6717 -74.5697 215° Southwest 263 303 8,000  Level Washington Center
05:38PM 39.6178 -74.6217 217° Southwest 263 303 9,900 2,460 Climbing Washington Center
05:39PM 39.5517 -74.6819 215° Southwest 270 311 13,100 3,180 Climbing Washington Center
05:40PM 39.4833 -74.7472 216° Southwest 294 338 16,200 3,120 Climbing Washington Center
05:41PM 39.4108 -74.8153 216° Southwest 316 364 19,300 2,940 Climbing Washington Center
05:42PM 39.3406 -74.8831 217° Southwest 316 364 22,100 2,160 Climbing Washington Center
05:43PM 39.2681 -74.9481 215° Southwest 316 364 23,700 1,680 Climbing Washington Center
05:44PM 39.1806 -74.9972 204° Southwest 329 379 25,600 1,920 Climbing Washington Center
05:45PM 39.0914 -75.0542 206° Southwest 341 392 27,600 1,920 Climbing Washington Center
05:46PM 39.0019 -75.1003 202° Southwest 352 405 29,500 1,740 Climbing Washington Center
05:47PM 38.9125 -75.1514 204° Southwest 352 405 31,100 1,260 Climbing Washington Center
05:48PM 38.8231 -75.2053 205° Southwest 357 411 32,100 960 Climbing Washington Center
05:49PM 38.7314 -75.2644 207° Southwest 357 411 33,100 960 Climbing Washington Center
05:50PM 38.6378 -75.3233 206° Southwest 364 419 34,100 960 Climbing Washington Center
05:51PM 38.5419 -75.3794 205° Southwest 369 425 35,100 900 Climbing Washington Center
05:52PM 38.4442 -75.4219 199° South 374 430 36,000 420 Climbing Washington Center
05:53PM 38.3419 -75.4725 201° Southwest 380 437 36,000  Level Washington Center
05:54PM 38.2356 -75.5150 197° South 392 451 36,000  Level Washington Center
05:55PM 38.1294 -75.5628 200° South 397 457 36,000  Level Washington Center
05:56PM 38.0333 -75.6208 205° Southwest 403 464 36,000  Level Washington Center
05:57PM 37.9250 -75.6656 198° South 403 464 36,000  Level Washington Center
05:58PM 37.8206 -75.7128 200° South 403 464 36,000  Level Washington Center
05:59PM 37.7164 -75.7625 201° Southwest 403 464 36,000  Level Washington Center
06:00PM 37.6078 -75.8067 198° South 408 470 36,000  Level Washington Center
06:01PM 37.4992 -75.8561 200° South 408 470 36,000  Level Washington Center
06:02PM 37.3928 -75.9056 200° South 408 470 36,000  Level Washington Center
06:03PM 37.2842 -75.9547 200° South 413 475 36,000  Level Washington Center
06:04PM 37.1733 -76.0036 199° South 413 475 36,000  Level Washington Center
06:05PM 37.0647 -76.0525 200° South 418 481 36,000  Level Washington Center
06:06PM 36.9497 -76.1014 199° South 423 487 36,000  Level Washington Center
06:07PM 36.8392 -76.1472 198° South 428 493 36,000  Level Washington Center
06:08PM 36.7303 -76.1958 200° South 428 493 36,000  Level Washington Center
06:09PM 36.6342 -76.2417 201° Southwest 428 493 36,000  Level Washington Center
06:10PM 36.5211 -76.2925 200° South 428 493 36,000  Level Washington Center
06:11PM 36.4125 -76.3378 199° South 428 493 36,000  Level Washington Center
06:12PM 36.3058 -76.3858 200° South 422 486 36,000  Level Washington Center
06:13PM 36.1969 -76.4336 200° South 422 486 36,000  Level Washington Center
06:14PM 36.0881 -76.4789 199° South 422 486 36,000  Level Washington Center
06:15PM 35.9792 -76.5264 199° South 422 486 36,000  Level Washington Center
06:16PM 35.8703 -76.5711 198° South 422 486 36,000  Level Washington Center
06:17PM 35.7636 -76.6186 200° South 422 486 36,000  Level Washington Center
06:18PM 35.6567 -76.6658 200° South 417 480 36,000  Level Washington Center
06:19PM 35.5500 -76.7103 199° South 417 480 36,000  Level Washington Center
06:20PM 35.4411 -76.7572 199° South 412 474 36,000  Level Washington Center
06:21PM 35.3361 -76.8014 199° South 407 468 36,000  Level Washington Center
06:22PM 35.2314 -76.8458 199° South 407 468 36,000  Level Washington Center
06:23PM 35.1244 -76.8922 200° South 407 468 36,000  Level Washington Center
06:24PM 35.0197 -76.9336 198° South 402 463 36,000  Level Washington Center
06:25PM 34.9189 -76.9853 203° Southwest 402 463 36,000  Level Washington Center
06:26PM 34.8142 -77.0264 198° South 402 463 36,000 -60 Level Washington Center
06:27PM 34.7114 -77.0675 198° South 402 463 35,900  Descending Washington Center
06:28PM 34.6108 -77.1086 199° South 392 451 36,000  Climbing Washington Center
06:29PM 34.5122 -77.1522 200° South 392 451 36,000  Level Washington Center
06:30PM 34.4114 -77.1931 198° South 392 451 36,000  Level Washington Center
06:31PM 34.3086 -77.2364 199° South 392 451 36,000  Level Washington Center
06:32PM 34.2058 -77.2769 198° South 392 451 36,000  Level Washington Center
06:33PM 34.1031 -77.3200 199° South 392 451 36,000  Level Washington Center
06:34PM 33.9981 -77.3606 198° South 392 451 36,000  Level Washington Center
06:35PM 33.9353 -77.3886 200° South 392 451 36,000  Level Jacksonville Center
06:36PM 33.8328 -77.4300 199° South 392 451 36,000  Level Jacksonville Center
06:37PM 33.7303 -77.4714 199° South 392 451 36,000  Level Jacksonville Center
06:38PM 33.6278 -77.5150 200° South 392 451 36,000  Level Jacksonville Center
06:39PM 33.5275 -77.5561 199° South 392 451 36,000  Level Jacksonville Center
06:40PM 33.4247 -77.5944 197° South 392 451 36,000  Level Jacksonville Center
06:41PM 33.3119 -77.6411 199° South 392 451 36,000  Level Jacksonville Center
06:42PM 33.2072 -77.6844 199° South 397 457 36,000  Level Jacksonville Center
06:43PM 33.1047 -77.7253 198° South 397 457 36,000  Level Jacksonville Center
06:44PM 32.9958 -77.7711 199° South 397 457 36,000  Level Jacksonville Center
06:45PM 32.8911 -77.8092 197° South 397 457 36,000  Level Jacksonville Center
06:46PM 32.7822 -77.8547 199° South 397 457 36,000  Level Jacksonville Center
06:47PM 32.6733 -77.8953 197° South 403 464 36,000  Level Jacksonville Center
06:48PM 32.5644 -77.9433 200° South 409 471 36,000  Level Jacksonville Center
06:49PM 32.4575 -77.9836 198° South 409 471 36,000  Level Jacksonville Center
06:50PM 32.3464 -78.0264 198° South 414 476 36,000  Level Jacksonville Center
06:51PM 32.2375 -78.0692 198° South 419 482 36,000  Level Jacksonville Center
06:52PM 32.1306 -78.1139 200° South 419 482 36,000  Level Jacksonville Center
06:53PM 32.0236 -78.1514 197° South 419 482 36,000  Level Jacksonville Center
06:54PM 31.9106 -78.1989 200° South 419 482 36,000  Level Jacksonville Center
06:55PM 31.8014 -78.2411 198° South 419 482 36,000  Level Jacksonville Center
06:56PM 31.6925 -78.2906 201° Southwest 424 488 36,000  Level Jacksonville Center
06:57PM 31.5836 -78.3325 198° South 418 481 36,000  Level Jacksonville Center
06:58PM 31.4744 -78.3742 198° South 412 474 36,000  Level Jacksonville Center
06:59PM 31.3692 -78.4111 197° South 412 474 36,000  Level Jacksonville Center
07:00PM 31.2642 -78.4550 200° South 417 480 36,000  Level Jacksonville Center
07:01PM 31.1572 -78.4964 198° South 412 474 36,000  Level Jacksonville Center
07:02PM 31.0478 -78.5353 197° South 412 474 36,000  Level Jacksonville Center
07:03PM 30.9386 -78.5767 198° South 412 474 36,000  Level Jacksonville Center
07:04PM 30.8378 -78.6200 200° South 412 474 36,000  Level Jacksonville Center
07:05PM 30.7286 -78.6589 197° South 412 474 36,000  Level Jacksonville Center
07:06PM 30.6172 -78.7022 199° South 411 473 36,000  Level Jacksonville Center
07:06PM 30.5328 -78.7311 196° South 405 466 36,000  Level Miami Center
07:07PM 30.4197 -78.7725 198° South 405 466 36,000  Level Miami Center
07:08PM 30.3128 -78.8114 197° South 410 472 36,000  Level Miami Center
07:09PM 30.1997 -78.8503 197° South 410 472 36,000  Level Miami Center
07:10PM 30.0950 -78.8914 199° South 412 474 36,000  Level Miami Center
07:11PM 29.9797 -78.9275 195° South 412 474 36,000 -420 Level Miami Center
07:12PM 29.8708 -78.9683 198° South 412 474 35,200 -900 Descending Miami Center
07:13PM 29.7617 -79.0044 196° South 412 474 34,200 -1,020 Descending Miami Center
07:14PM 29.6444 -79.0308 191° South 418 481 33,200 -1,020 Descending Miami Center
07:15PM 29.5214 -79.0475 187° South 435 501 32,200 -960 Descending Miami Center
07:16PM 29.4139 -79.1097 207° Southwest 440 506 31,300 -720 Descending Miami Center
07:17PM 29.3189 -79.1814 213° Southwest 416 479 30,800 -480 Descending Miami Center
07:18PM 29.2281 -79.2558 216° Southwest 416 479 30,400 -480 Descending Miami Center
07:19PM 29.1392 -79.3344 218° Southwest 416 479 29,900 -540 Descending Miami Center
07:20PM 29.0419 -79.4036 212° Southwest 416 479 29,400 -540 Descending Miami Center
07:21PM 28.9447 -79.4750 213° Southwest 411 473 28,900 -540 Descending Miami Center
07:22PM 28.8536 -79.5486 215° Southwest 411 473 28,400 -540 Descending Miami Center
07:23PM 28.7581 -79.6244 215° Southwest 411 473 27,900 -540 Descending Miami Center
07:24PM 28.6650 -79.7000 215° Southwest 417 480 27,400 -540 Descending Miami Center
07:25PM 28.5717 -79.7711 214° Southwest 412 474 26,900 -540 Descending Miami Center
07:26PM 28.4783 -79.8394 213° Southwest 407 468 26,400 -720 Descending Miami Center
07:27PM 28.3792 -79.8958 207° Southwest 401 461 25,500 -1,380 Descending Miami Center
07:28PM 28.2681 -79.9211 191° South 403 464 23,700 -1,740 Descending Miami Center
07:29PM 28.1525 -79.9486 192° South 414 476 22,100 -1,620 Descending Miami Center
07:30PM 28.0372 -79.9736 191° South 414 476 20,500 -1,620 Descending Miami Center
07:31PM 27.9344 -79.9967 191° South 419 482 18,900 -1,560 Descending Miami Center
07:32PM 27.8233 -80.0217 191° South 422 486 17,400 -1,680 Descending Miami Center
07:33PM 27.7036 -80.0489 191° South 405 466 15,600 -1,680 Descending Miami Center
07:34PM 27.5989 -80.0719 191° South 396 456 14,100 -1,500 Descending Miami Center
07:35PM 27.4939 -80.0947 191° South 391 450 12,700 -1,380 Descending Miami Center
07:36PM 27.4142 -80.1111 190° South 357 411 11,400 -1,020 Descending Miami Center
07:37PM 27.3325 -80.1206 186° South 321 369 10,700 -660 Descending Miami Center
07:38PM 27.2408 -80.1086 173° South 301 346 10,100 -1,380 Descending Miami Center
07:39PM 27.1578 -80.0900 169° South 306 352 8,000 -2,100 Descending Miami Center
07:40PM 27.0808 -80.0739 169° South 306 352 5,900 -1,500 Descending Miami Center
07:41PM 27.0103 -80.0603 170° South 294 338 5,100 -420 Descending Miami Center
07:42PM 26.9333 -80.0442 169° South 294 338 5,100 -60 Level Miami Center
07:43PM 26.8478 -80.0347 174° South 294 338 5,000 -120 Descending Miami Center
07:44PM 26.7664 -80.0350 180° South 294 338 4,900 -600 Descending Miami Center
07:45PM 26.6869 -80.0375 182° South 294 338 3,900 -1,020 Descending Miami Center
07:47PM 26.5825 -80.0613 180° South  Level Estimated
07:54PM 26.3785 -80.1077 180° South  Level Estimated
07:55PM 26.3785 -80.1077 180° South  Level Estimated
07:56PM 26.3785 -80.1077 180° South  Level Estimated
07:57PM 26.3785 -80.1077 180° South  Level Estimated
07:58PM 26.3785 -80.1077 180° South  Level Estimated
07:59PM 26.3785 -80.1077 180° South  Level Estimated
08:00PM 26.3785 -80.1077 180° South  Level Estimated